createdAt,value
2018-10-21T00:01:04.581Z,2.33
2018-10-21T00:03:33.616Z,2.50
2018-10-21T00:06:03.975Z,2.37
2018-10-21T00:08:32.993Z,2.35
2018-10-21T00:11:02.041Z,2.22
2018-10-21T00:13:31.331Z,2.27
2018-10-21T00:16:00.760Z,2.40
2018-10-21T00:18:30.477Z,1.93
2018-10-21T00:20:59.568Z,2.00
2018-10-21T00:23:28.607Z,2.33
2018-10-21T00:25:58.243Z,2.47
2018-10-21T00:28:27.297Z,2.20
2018-10-21T00:30:56.882Z,1.93
2018-10-21T00:33:26.670Z,2.30
2018-10-21T00:35:55.734Z,2.12
2018-10-21T00:38:24.773Z,2.20
2018-10-21T00:40:53.863Z,2.13
2018-10-21T00:43:22.898Z,1.92
2018-10-21T00:45:52.018Z,2.10
2018-10-21T00:48:22.281Z,2.20
2018-10-21T00:50:51.331Z,1.75
2018-10-21T00:53:20.933Z,2.12
2018-10-21T00:55:50.389Z,2.30
2018-10-21T00:58:19.565Z,2.17
2018-10-21T01:00:48.594Z,2.50
2018-10-21T01:03:18.445Z,2.00
2018-10-21T01:05:47.486Z,2.40
2018-10-21T01:08:16.541Z,2.10
2018-10-21T01:10:45.593Z,1.77
2018-10-21T01:13:14.647Z,1.80
2018-10-21T01:15:45.181Z,1.80
2018-10-21T01:18:14.853Z,1.90
2018-10-21T01:20:43.894Z,2.05
2018-10-21T01:23:12.925Z,1.90
2018-10-21T01:25:41.978Z,2.05
2018-10-21T01:28:11.038Z,2.00
2018-10-21T01:30:40.994Z,2.37
2018-10-21T01:33:10.569Z,1.80
2018-10-21T01:35:39.785Z,2.08
2018-10-21T01:38:08.881Z,1.85
2018-10-21T01:40:46.602Z,1.87
2018-10-21T01:43:19.949Z,2.05
2018-10-21T01:45:49.040Z,2.10
2018-10-21T01:48:19.845Z,2.22
2018-10-21T01:50:49.775Z,1.90
2018-10-21T01:53:20.018Z,1.80
2018-10-21T01:55:49.190Z,1.80
2018-10-21T01:58:18.285Z,2.00
2018-10-21T02:00:48.378Z,2.07
2018-10-21T02:03:17.700Z,1.90
2018-10-21T02:05:47.345Z,2.12
2018-10-21T02:08:17.533Z,2.00
2018-10-21T02:10:46.591Z,2.40
2018-10-21T02:13:16.337Z,2.03
2018-10-21T02:15:46.178Z,1.92
2018-10-21T02:18:15.769Z,2.00
2018-10-21T02:20:44.814Z,2.10
2018-10-21T02:23:13.845Z,2.10
2018-10-21T02:25:43.109Z,2.10
2018-10-21T02:28:12.158Z,2.20
2018-10-21T02:30:42.730Z,2.07
2018-10-21T02:33:12.940Z,1.90
2018-10-21T02:35:41.919Z,1.90
2018-10-21T02:38:10.988Z,1.90
2018-10-21T02:41:53.921Z,2.20
2018-10-21T02:44:23.518Z,1.80
2018-10-21T02:46:53.862Z,1.63
2018-10-21T02:49:24.062Z,2.00
2018-10-21T02:51:59.887Z,2.10
2018-10-21T02:54:30.161Z,1.70
2018-10-21T02:56:59.749Z,1.83
2018-10-21T02:59:28.689Z,1.67
2018-10-21T03:01:57.907Z,1.83
2018-10-21T03:04:26.977Z,1.90
2018-10-21T03:06:56.054Z,2.03
2018-10-21T03:09:25.581Z,2.10
2018-10-21T03:11:54.938Z,2.10
2018-10-21T03:14:25.526Z,2.05
2018-10-21T03:16:54.702Z,2.03
2018-10-21T03:19:24.367Z,1.90
2018-10-21T03:21:54.366Z,1.87
2018-10-21T03:24:23.385Z,1.90
2018-10-21T03:26:52.457Z,1.93
2018-10-21T03:29:21.490Z,1.95
2018-10-21T03:31:51.954Z,1.90
2018-10-21T03:34:21.514Z,1.65
2018-10-21T03:36:50.561Z,1.70
2018-10-21T03:39:19.587Z,1.95
2018-10-21T03:41:48.641Z,1.80
2018-10-21T03:44:18.088Z,2.00
2018-10-21T03:46:47.662Z,1.73
2018-10-21T03:49:17.769Z,1.62
2018-10-21T03:51:47.422Z,1.93
2018-10-21T03:54:17.029Z,2.08
2018-10-21T03:56:46.082Z,2.12
2018-10-21T03:59:15.117Z,1.90
2018-10-21T04:01:44.315Z,1.60
2018-10-21T04:04:13.384Z,1.60
2018-10-21T04:06:43.144Z,1.93
2018-10-21T04:09:12.229Z,1.77
2018-10-21T04:11:41.280Z,1.80
2018-10-21T04:14:10.731Z,1.77
2018-10-21T04:16:39.770Z,2.00
2018-10-21T04:19:09.112Z,1.80
2018-10-21T04:21:38.174Z,1.50
2018-10-21T04:24:07.212Z,1.97
2018-10-21T04:26:36.283Z,1.53
2018-10-21T04:29:05.332Z,1.80
2018-10-21T04:31:34.955Z,1.75
2018-10-21T04:34:05.575Z,1.77
2018-10-21T04:36:35.713Z,1.70
2018-10-21T04:39:41.609Z,1.80
2018-10-21T04:42:10.661Z,1.60
2018-10-21T04:44:40.274Z,2.02
2018-10-21T04:47:10.774Z,1.60
2018-10-21T04:49:40.350Z,1.70
2018-10-21T04:52:09.965Z,1.80
2018-10-21T04:54:39.020Z,1.60
2018-10-21T04:57:08.545Z,1.77
2018-10-21T04:59:38.898Z,1.70
2018-10-21T05:02:08.074Z,1.90
2018-10-21T05:04:37.210Z,1.57
2018-10-21T05:07:06.279Z,1.77
2018-10-21T05:09:35.311Z,1.80
2018-10-21T05:12:04.574Z,1.60
2018-10-21T05:14:38.194Z,1.70
2018-10-21T05:17:07.184Z,1.70
2018-10-21T05:19:36.746Z,1.80
2018-10-21T05:22:06.517Z,1.53
2018-10-21T05:24:35.797Z,1.80
2018-10-21T05:27:05.894Z,1.77
2018-10-21T05:29:35.654Z,1.73
2018-10-21T05:32:05.603Z,1.50
2018-10-21T05:34:35.027Z,1.90
2018-10-21T05:37:04.407Z,1.63
2018-10-21T05:39:34.149Z,1.37
2018-10-21T05:42:03.771Z,1.87
2018-10-21T05:44:33.148Z,1.87
2018-10-21T05:47:02.329Z,1.53
2018-10-21T05:49:32.186Z,1.40
2018-10-21T05:52:01.279Z,1.80
2018-10-21T05:54:30.283Z,1.80
2018-10-21T05:56:59.329Z,1.60
2018-10-21T05:59:28.375Z,1.53
2018-10-21T06:01:57.503Z,1.53
2018-10-21T06:04:26.550Z,1.70
2018-10-21T06:06:55.670Z,1.77
2018-10-21T06:09:24.761Z,1.70
2018-10-21T06:11:54.170Z,1.60
2018-10-21T06:14:24.302Z,1.80
2018-10-21T06:17:00.953Z,1.47
2018-10-21T06:19:35.846Z,1.70
2018-10-21T06:22:04.933Z,1.90
2018-10-21T06:24:34.237Z,1.40
2018-10-21T06:27:03.285Z,1.90
2018-10-21T06:29:33.511Z,1.90
2018-10-21T06:32:03.536Z,1.80
2018-10-21T06:34:33.657Z,1.87
2018-10-21T06:37:03.621Z,1.70
2018-10-21T06:39:33.313Z,1.63
2018-10-21T06:42:03.226Z,1.60
2018-10-21T06:44:32.264Z,1.43
2018-10-21T06:47:01.652Z,1.67
2018-10-21T06:49:31.032Z,1.67
2018-10-21T06:52:00.090Z,1.60
2018-10-21T06:54:29.137Z,1.50
2018-10-21T06:56:58.252Z,1.70
2018-10-21T06:59:27.238Z,2.17
2018-10-21T07:01:56.631Z,2.83
2018-10-21T07:04:25.751Z,3.00
2018-10-21T07:06:54.749Z,3.50
2018-10-21T07:09:23.807Z,4.03
2018-10-21T07:11:53.056Z,3.87
2018-10-21T07:14:22.575Z,3.57
2018-10-21T07:16:51.691Z,3.05
2018-10-21T07:19:21.008Z,2.90
2018-10-21T07:21:50.481Z,3.40
2018-10-21T07:24:19.510Z,3.95
2018-10-21T07:26:48.565Z,5.20
2018-10-21T07:29:17.774Z,4.42
2018-10-21T07:31:47.527Z,4.20
2018-10-21T07:34:17.169Z,3.62
2018-10-21T07:36:46.957Z,4.45
2018-10-21T07:39:17.465Z,3.45
2018-10-21T07:41:46.604Z,5.00
2018-10-21T07:44:16.065Z,3.50
2018-10-21T07:46:45.173Z,3.22
2018-10-21T07:49:15.090Z,3.22
2018-10-21T07:51:44.118Z,4.87
2018-10-21T07:54:13.179Z,3.87
2018-10-21T07:56:42.537Z,4.12
2018-10-21T07:59:11.613Z,4.00
2018-10-21T08:01:40.733Z,4.08
2018-10-21T08:04:09.906Z,3.47
2018-10-21T08:06:51.766Z,4.25
2018-10-21T08:09:20.874Z,3.85
2018-10-21T08:11:49.945Z,3.87
2018-10-21T08:14:19.465Z,4.62
2018-10-21T08:16:48.518Z,4.95
2018-10-21T08:19:17.562Z,4.12
2018-10-21T08:21:46.678Z,3.90
2018-10-21T08:24:16.409Z,2.98
2018-10-21T08:26:46.199Z,3.85
2018-10-21T08:29:15.273Z,3.98
2018-10-21T08:31:45.251Z,3.52
2018-10-21T08:34:15.044Z,4.00
2018-10-21T08:36:48.467Z,4.72
2018-10-21T08:39:17.709Z,3.98
2018-10-21T08:41:47.794Z,3.50
2018-10-21T08:44:16.855Z,5.42
2018-10-21T08:46:46.724Z,3.83
2018-10-21T08:49:16.619Z,3.50
2018-10-21T08:51:46.321Z,3.92
2018-10-21T08:54:15.430Z,4.70
2018-10-21T08:56:44.594Z,3.90
2018-10-21T08:59:14.175Z,4.55
2018-10-21T09:01:44.620Z,4.92
2018-10-21T09:04:13.773Z,4.47
2018-10-21T09:06:43.208Z,4.20
2018-10-21T09:09:12.637Z,3.75
2018-10-21T09:11:41.960Z,4.35
2018-10-21T09:14:12.443Z,2.90
2018-10-21T09:16:41.602Z,3.60
2018-10-21T09:19:12.828Z,3.75
2018-10-21T09:21:44.228Z,4.17
2018-10-21T09:24:15.140Z,4.00
2018-10-21T09:26:44.558Z,3.75
2018-10-21T09:29:13.780Z,4.55
2018-10-21T09:31:43.815Z,3.22
2018-10-21T09:34:13.671Z,4.37
2018-10-21T09:36:43.474Z,3.70
2018-10-21T09:39:14.246Z,4.33
2018-10-21T09:41:44.084Z,3.30
2018-10-21T09:44:13.138Z,4.37
2018-10-21T09:46:43.237Z,4.28
2018-10-21T09:49:13.761Z,3.80
2018-10-21T09:51:42.834Z,4.00
2018-10-21T09:54:11.913Z,4.45
2018-10-21T09:56:40.988Z,3.92
2018-10-21T09:59:10.053Z,4.08
2018-10-21T10:01:45.512Z,4.03
2018-10-21T10:04:14.653Z,4.30
2018-10-21T10:06:44.329Z,4.03
2018-10-21T10:09:13.910Z,4.37
2018-10-21T10:11:43.665Z,3.47
2018-10-21T10:14:13.107Z,3.60
2018-10-21T10:16:42.194Z,3.85
2018-10-21T10:19:11.316Z,3.70
2018-10-21T10:21:40.559Z,4.60
2018-10-21T10:24:10.221Z,3.70
2018-10-21T10:26:39.361Z,3.95
2018-10-21T10:29:08.464Z,3.60
2018-10-21T10:31:38.073Z,4.03
2018-10-21T10:34:07.846Z,4.08
2018-10-21T10:36:37.435Z,4.05
2018-10-21T10:39:09.844Z,4.35
2018-10-21T10:41:39.238Z,4.78
2018-10-21T10:44:08.545Z,4.08
2018-10-21T10:46:37.624Z,4.37
2018-10-21T10:49:07.717Z,4.10
2018-10-21T10:51:36.757Z,3.92
2018-10-21T10:54:06.113Z,3.62
2018-10-21T10:56:35.129Z,3.90
2018-10-21T10:59:04.251Z,4.12
2018-10-21T11:01:36.373Z,3.72
2018-10-21T11:04:05.843Z,3.55
2018-10-21T11:06:34.846Z,3.27
2018-10-21T11:09:06.040Z,3.67
2018-10-21T11:11:35.173Z,4.22
2018-10-21T11:14:05.453Z,3.22
2018-10-21T11:16:35.447Z,3.80
2018-10-21T11:19:04.527Z,4.10
2018-10-21T11:21:33.807Z,4.57
2018-10-21T11:24:02.895Z,3.77
2018-10-21T11:26:32.238Z,3.22
2018-10-21T11:29:01.334Z,3.87
2018-10-21T11:31:30.954Z,3.95
2018-10-21T11:34:00.752Z,3.95
2018-10-21T11:36:30.697Z,4.05
2018-10-21T11:38:59.743Z,3.17
2018-10-21T11:41:28.804Z,2.98
2018-10-21T11:43:58.841Z,3.47
2018-10-21T11:46:27.945Z,4.30
2018-10-21T11:49:01.654Z,4.10
2018-10-21T11:51:30.722Z,3.10
2018-10-21T11:53:59.812Z,3.08
2018-10-21T11:56:28.890Z,4.45
2018-10-21T11:58:57.994Z,3.10
2018-10-21T12:01:27.109Z,3.02
2018-10-21T12:03:56.216Z,3.05
2018-10-21T12:06:26.015Z,2.58
2018-10-21T12:08:59.884Z,3.12
2018-10-21T12:11:28.932Z,3.20
2018-10-21T12:13:57.985Z,3.12
2018-10-21T12:16:28.194Z,3.42
2018-10-21T12:18:58.104Z,2.83
2018-10-21T12:21:27.233Z,2.60
2018-10-21T12:23:56.286Z,3.27
2018-10-21T12:26:25.327Z,2.45
2018-10-21T12:28:54.428Z,2.50
2018-10-21T12:31:24.183Z,2.62
2018-10-21T12:33:53.851Z,2.77
2018-10-21T12:36:23.090Z,3.33
2018-10-21T12:38:52.095Z,2.40
2018-10-21T12:41:21.243Z,2.65
2018-10-21T12:43:50.342Z,2.95
2018-10-21T12:46:19.642Z,2.70
2018-10-21T12:48:49.036Z,2.55
2018-10-21T12:51:18.083Z,2.95
2018-10-21T12:53:47.348Z,2.55
2018-10-21T12:56:16.420Z,1.87
2018-10-21T12:58:45.482Z,3.25
2018-10-21T13:01:15.490Z,2.40
2018-10-21T13:03:44.481Z,2.95
2018-10-21T13:06:13.601Z,2.50
2018-10-21T13:08:42.693Z,2.42
2018-10-21T13:11:11.861Z,2.67
2018-10-21T13:13:41.916Z,1.90
2018-10-21T13:16:11.843Z,2.42
2018-10-21T13:18:40.858Z,2.50
2018-10-21T13:21:11.482Z,2.40
2018-10-21T13:23:40.569Z,2.47
2018-10-21T13:26:09.629Z,1.90
2018-10-21T13:28:39.547Z,1.95
2018-10-21T13:31:09.306Z,2.27
2018-10-21T13:33:38.728Z,2.10
2018-10-21T13:36:07.822Z,2.12
2018-10-21T13:38:37.262Z,2.27
2018-10-21T13:41:08.622Z,3.00
2018-10-21T13:43:37.674Z,2.37
2018-10-21T13:46:06.844Z,3.02
2018-10-21T13:48:36.845Z,2.20
2018-10-21T13:51:06.243Z,2.17
2018-10-21T13:53:35.341Z,2.47
2018-10-21T13:56:04.489Z,2.35
2018-10-21T13:58:33.897Z,2.77
2018-10-21T14:01:04.490Z,1.80
2018-10-21T14:03:34.149Z,1.92
2018-10-21T14:06:03.403Z,2.30
2018-10-21T14:08:33.109Z,2.08
2018-10-21T14:11:02.169Z,1.90
2018-10-21T14:13:31.758Z,2.30
2018-10-21T14:16:00.812Z,2.25
2018-10-21T14:18:29.875Z,1.92
2018-10-21T14:20:58.976Z,2.77
2018-10-21T14:23:28.017Z,2.35
2018-10-21T14:25:57.729Z,1.92
2018-10-21T14:28:26.795Z,2.33
2018-10-21T14:30:56.452Z,2.17
2018-10-21T14:33:25.797Z,2.42
2018-10-21T14:35:54.883Z,5.78
2018-10-21T14:38:24.513Z,10.90
2018-10-21T14:40:53.456Z,12.10
2018-10-21T14:43:22.526Z,16.62
2018-10-21T14:45:51.702Z,20.80
2018-10-21T14:48:21.658Z,29.10
2018-10-21T14:50:50.739Z,32.93
2018-10-21T14:53:20.436Z,39.50
2018-10-21T14:55:49.485Z,42.40
2018-10-21T14:58:18.529Z,48.50
2018-10-21T15:00:47.628Z,56.00
2018-10-21T15:03:16.738Z,58.33
2018-10-21T15:05:45.856Z,65.17
2018-10-21T15:08:15.020Z,68.85
2018-10-21T15:10:44.811Z,77.12
2018-10-21T15:13:14.770Z,73.72
2018-10-21T15:15:43.925Z,84.85
2018-10-21T15:18:13.009Z,85.38
2018-10-21T15:20:42.045Z,86.82
2018-10-21T15:23:11.781Z,93.90
2018-10-21T15:25:41.555Z,97.02
2018-10-21T15:28:10.775Z,103.60
2018-10-21T15:30:40.362Z,106.30
2018-10-21T15:33:10.496Z,114.47
2018-10-21T15:35:39.640Z,116.03
2018-10-21T15:38:08.984Z,120.97
2018-10-21T15:40:38.299Z,117.28
2018-10-21T15:43:07.882Z,116.93
2018-10-21T15:45:38.017Z,120.37
2018-10-21T15:48:08.337Z,113.28
2018-10-21T15:50:37.943Z,109.50
2018-10-21T15:53:07.002Z,104.27
2018-10-21T15:55:36.057Z,103.78
2018-10-21T15:58:05.673Z,100.58
2018-10-21T16:00:34.720Z,101.55
2018-10-21T16:03:03.897Z,99.83
2018-10-21T16:05:33.011Z,96.87
2018-10-21T16:08:02.130Z,95.87
2018-10-21T16:10:32.798Z,91.80
2018-10-21T16:13:02.695Z,93.10
2018-10-21T16:15:31.829Z,92.85
2018-10-21T16:18:00.853Z,91.60
2018-10-21T16:20:31.154Z,86.82
2018-10-21T16:23:00.223Z,85.40
2018-10-21T16:25:30.318Z,79.05
2018-10-21T16:27:59.700Z,82.45
2018-10-21T16:30:29.278Z,76.80
2018-10-21T16:32:59.349Z,77.20
2018-10-21T16:35:28.282Z,74.58
2018-10-21T16:37:57.354Z,72.67
2018-10-21T16:40:26.527Z,70.03
2018-10-21T16:42:55.746Z,67.27
2018-10-21T16:45:26.135Z,65.90
2018-10-21T16:47:55.849Z,64.55
2018-10-21T16:50:25.390Z,62.00
2018-10-21T16:52:55.088Z,62.20
2018-10-21T16:55:24.209Z,57.62
2018-10-21T16:57:53.517Z,58.40
2018-10-21T17:00:22.681Z,56.45
2018-10-21T17:02:52.347Z,56.58
2018-10-21T17:05:22.164Z,54.20
2018-10-21T17:07:51.450Z,50.63
2018-10-21T17:10:20.946Z,49.18
2018-10-21T17:12:49.748Z,47.48
2018-10-21T17:15:18.991Z,45.73
2018-10-21T17:17:48.422Z,45.95
2018-10-21T17:20:17.552Z,45.67
2018-10-21T17:22:46.617Z,45.08
2018-10-21T17:25:16.625Z,43.78
2018-10-21T17:27:45.717Z,42.35
2018-10-21T17:30:17.175Z,42.90
2018-10-21T17:32:46.950Z,41.95
2018-10-21T17:35:16.922Z,43.40
2018-10-21T17:37:46.661Z,40.50
2018-10-21T17:40:15.834Z,40.45
2018-10-21T17:42:44.880Z,42.20
2018-10-21T17:45:14.938Z,39.20
2018-10-21T17:47:45.142Z,38.45
2018-10-21T17:50:15.522Z,40.60
2018-10-21T17:52:45.091Z,39.92
2018-10-21T17:55:14.630Z,36.42
2018-10-21T17:57:43.480Z,37.05
2018-10-21T18:00:13.364Z,36.50
2018-10-21T18:02:42.516Z,36.70
2018-10-21T18:05:13.476Z,38.48
2018-10-21T18:07:43.057Z,36.90
2018-10-21T18:10:12.891Z,35.58
2018-10-21T18:12:41.926Z,33.45
2018-10-21T18:15:12.136Z,35.20
2018-10-21T18:17:41.774Z,33.63
2018-10-21T18:20:11.894Z,32.03
2018-10-21T18:22:41.546Z,31.97
2018-10-21T18:25:11.655Z,33.42
2018-10-21T18:27:41.125Z,31.77
2018-10-21T18:30:12.321Z,34.55
2018-10-21T18:32:42.222Z,31.15
2018-10-21T18:35:13.541Z,30.37
2018-10-21T18:37:43.116Z,27.73
2018-10-21T18:40:12.746Z,29.18
2018-10-21T18:42:42.071Z,27.40
2018-10-21T18:45:13.128Z,27.02
2018-10-21T18:47:43.742Z,26.10
2018-10-21T18:50:14.775Z,25.20
2018-10-21T18:52:43.869Z,24.40
2018-10-21T18:55:13.621Z,24.55
2018-10-21T18:57:43.122Z,23.95
2018-10-21T19:00:14.731Z,24.82
2018-10-21T19:02:43.824Z,22.27
2018-10-21T19:05:13.763Z,21.50
2018-10-21T19:07:42.993Z,23.85
2018-10-21T19:10:13.634Z,22.73
2018-10-21T19:12:43.486Z,21.57
2018-10-21T19:15:13.559Z,22.13
2018-10-21T19:17:42.899Z,22.50
2018-10-21T19:20:13.790Z,20.97
2018-10-21T19:22:43.367Z,20.17
2018-10-21T19:25:14.447Z,21.17
2018-10-21T19:27:44.428Z,20.17
2018-10-21T19:30:15.545Z,20.40
2018-10-21T19:32:45.195Z,19.85
2018-10-21T19:35:16.020Z,19.10
2018-10-21T19:37:45.647Z,19.85
2018-10-21T19:40:15.673Z,19.07
2018-10-21T19:42:45.142Z,18.90
2018-10-21T19:45:15.345Z,19.20
2018-10-21T19:47:45.474Z,18.60
2018-10-21T19:50:16.334Z,19.17
2018-10-21T19:52:45.605Z,18.20
2018-10-21T19:55:14.840Z,17.90
2018-10-21T19:57:44.024Z,18.42
2018-10-21T20:00:16.161Z,17.45
2018-10-21T20:02:45.680Z,16.93
2018-10-21T20:05:15.038Z,18.03
2018-10-21T20:07:44.503Z,17.87
2018-10-21T20:10:14.596Z,16.42
2018-10-21T20:12:43.582Z,16.30
2018-10-21T20:15:13.211Z,16.67
2018-10-21T20:17:42.267Z,16.77
2018-10-21T20:20:12.538Z,15.77
2018-10-21T20:22:43.079Z,15.33
2018-10-21T20:25:12.798Z,14.53
2018-10-21T20:27:41.803Z,14.63
2018-10-21T20:30:12.547Z,15.38
2018-10-21T20:32:42.453Z,15.37
2018-10-21T20:35:12.475Z,13.68
2018-10-21T20:37:42.259Z,14.80
2018-10-21T20:40:11.733Z,14.70
2018-10-21T20:42:40.687Z,13.85
2018-10-21T20:45:12.577Z,13.95
2018-10-21T20:47:42.523Z,13.83
2018-10-21T20:50:11.594Z,12.90
2018-10-21T20:52:40.654Z,13.40
2018-10-21T20:55:11.352Z,13.20
2018-10-21T20:57:40.489Z,13.27
2018-10-21T21:00:09.628Z,12.10
2018-10-21T21:02:39.534Z,13.68
2018-10-21T21:05:10.399Z,12.73
2018-10-21T21:07:40.164Z,12.93
2018-10-21T21:10:09.709Z,12.05
2018-10-21T21:12:38.863Z,12.75
2018-10-21T21:15:08.404Z,11.68
2018-10-21T21:17:37.534Z,12.23
2018-10-21T21:20:07.726Z,12.20
2018-10-21T21:22:36.994Z,12.13
2018-10-21T21:25:06.838Z,11.63
2018-10-21T21:27:35.891Z,10.98
2018-10-21T21:30:06.759Z,11.18
2018-10-21T21:32:36.378Z,11.57
2018-10-21T21:35:07.154Z,10.53
2018-10-21T21:37:36.840Z,10.10
2018-10-21T21:40:07.345Z,11.57
2018-10-21T21:42:37.164Z,11.28
2018-10-21T21:45:06.619Z,11.20
2018-10-21T21:47:36.571Z,9.87
2018-10-21T21:50:06.734Z,10.73
2018-10-21T21:52:35.821Z,10.03
2018-10-21T21:55:05.775Z,10.18
2018-10-21T21:57:34.868Z,9.60
2018-10-21T22:00:05.657Z,10.23
2018-10-21T22:02:35.030Z,9.53
2018-10-21T22:05:04.693Z,9.23
2018-10-21T22:07:33.790Z,8.75
2018-10-21T22:10:02.942Z,9.80
2018-10-21T22:12:31.905Z,10.65
2018-10-21T22:15:01.124Z,9.48
2018-10-21T22:17:30.195Z,9.00
2018-10-21T22:19:59.246Z,8.77
2018-10-21T22:22:28.295Z,8.37
2018-10-21T22:24:58.056Z,8.00
2018-10-21T22:27:27.113Z,8.93
2018-10-21T22:29:57.083Z,9.00
2018-10-21T22:32:26.814Z,7.72
2018-10-21T22:34:56.242Z,8.47
2018-10-21T22:37:25.779Z,7.53
2018-10-21T22:39:56.412Z,8.23
2018-10-21T22:42:25.482Z,8.53
2018-10-21T22:44:54.641Z,8.00
2018-10-21T22:47:24.497Z,8.53
2018-10-21T22:49:54.156Z,7.37
2018-10-21T22:52:23.193Z,7.35
2018-10-21T22:54:52.869Z,7.92
2018-10-21T22:57:21.927Z,7.57
2018-10-21T22:59:51.648Z,7.73
2018-10-21T23:02:20.688Z,7.37
2018-10-21T23:04:49.812Z,7.05
2018-10-21T23:07:18.869Z,6.70
2018-10-21T23:09:47.897Z,6.87
2018-10-21T23:12:17.124Z,7.87
2018-10-21T23:14:46.110Z,7.42
2018-10-21T23:17:15.154Z,7.12
2018-10-21T23:19:47.543Z,6.80
2018-10-21T23:22:16.671Z,6.80
2018-10-21T23:24:47.106Z,6.57
2018-10-21T23:27:16.164Z,6.78
2018-10-21T23:29:45.886Z,6.87
2018-10-21T23:32:15.471Z,6.80
2018-10-21T23:34:44.950Z,6.13
2018-10-21T23:37:14.569Z,6.60
2018-10-21T23:39:43.897Z,7.27
2018-10-21T23:42:13.770Z,7.03
2018-10-21T23:44:43.080Z,6.20
2018-10-21T23:47:12.153Z,6.62
2018-10-21T23:49:41.590Z,6.17
2018-10-21T23:52:10.976Z,7.03
2018-10-21T23:54:39.954Z,6.37
2018-10-21T23:57:09.390Z,5.90
2018-10-21T23:59:38.495Z,6.70
